createdAt,value
2022-09-27T00:01:13.397Z,96.41
2022-09-27T00:03:41.830Z,96.55
2022-09-27T00:06:14.791Z,95.78
2022-09-27T00:08:43.632Z,95.88
2022-09-27T00:11:18.678Z,95.67
2022-09-27T00:13:46.755Z,95.71
2022-09-27T00:16:15.197Z,95.62
2022-09-27T00:18:43.987Z,95.67
2022-09-27T00:21:15.068Z,95.82
2022-09-27T00:23:43.297Z,95.27
2022-09-27T00:26:14.273Z,95.46
2022-09-27T00:28:42.440Z,95.73
2022-09-27T00:31:22.088Z,95.64
2022-09-27T00:33:50.913Z,96.31
2022-09-27T00:36:21.509Z,95.86
2022-09-27T00:38:49.851Z,95.99
2022-09-27T00:41:20.546Z,96.30
2022-09-27T00:43:53.151Z,96.32
2022-09-27T00:46:27.569Z,96.32
2022-09-27T00:49:05.365Z,96.24
2022-09-27T00:51:38.386Z,96.46
2022-09-27T00:54:08.576Z,96.40
2022-09-27T00:56:38.259Z,96.46
2022-09-27T00:59:11.111Z,96.66
2022-09-27T01:01:39.279Z,96.26
2022-09-27T01:04:10.182Z,96.35
2022-09-27T01:06:39.703Z,96.21
2022-09-27T01:09:09.105Z,96.24
2022-09-27T01:11:45.802Z,95.66
2022-09-27T01:14:41.934Z,96.33
2022-09-27T01:17:25.000Z,96.31
2022-09-27T01:20:31.378Z,96.58
2022-09-27T01:23:20.578Z,96.20
2022-09-27T01:25:59.275Z,96.04
2022-09-27T01:28:42.580Z,95.83
2022-09-27T01:31:21.069Z,96.15
2022-09-27T01:34:02.349Z,95.93
2022-09-27T01:36:38.841Z,96.00
2022-09-27T01:39:22.378Z,95.73
2022-09-27T01:42:00.563Z,95.86
2022-09-27T01:44:34.939Z,95.36
2022-09-27T01:47:08.806Z,95.78
2022-09-27T01:49:43.537Z,96.04
2022-09-27T01:52:14.526Z,96.14
2022-09-27T01:54:47.365Z,96.14
2022-09-27T01:57:21.412Z,96.06
2022-09-27T01:59:54.823Z,96.16
2022-09-27T02:02:28.437Z,96.00
2022-09-27T02:05:00.832Z,96.06
2022-09-27T02:07:33.907Z,96.20
2022-09-27T02:10:07.517Z,96.36
2022-09-27T02:12:44.508Z,96.36
2022-09-27T02:15:15.198Z,96.10
2022-09-27T02:17:49.402Z,96.38
2022-09-27T02:20:26.343Z,96.22
2022-09-27T02:23:00.751Z,96.21
2022-09-27T02:25:34.774Z,96.43
2022-09-27T02:28:10.335Z,96.22
2022-09-27T02:30:39.577Z,96.05
2022-09-27T02:33:09.082Z,95.92
2022-09-27T02:35:37.465Z,96.07
2022-09-27T02:38:08.084Z,96.13
2022-09-27T02:40:38.149Z,96.11
2022-09-27T02:43:07.575Z,96.33
2022-09-27T02:45:44.224Z,96.29
2022-09-27T02:48:22.873Z,96.06
2022-09-27T02:51:05.609Z,96.27
2022-09-27T02:53:43.134Z,96.40
2022-09-27T02:56:18.417Z,96.60
2022-09-27T02:58:55.706Z,96.33
2022-09-27T03:01:33.273Z,96.46
2022-09-27T03:04:09.183Z,96.05
2022-09-27T03:06:39.410Z,96.35
2022-09-27T03:09:07.321Z,95.88
2022-09-27T03:11:35.198Z,95.93
2022-09-27T03:14:09.078Z,95.82
2022-09-27T03:16:37.302Z,96.15
2022-09-27T03:19:06.713Z,96.33
2022-09-27T03:21:36.289Z,96.23
2022-09-27T03:24:04.938Z,96.07
2022-09-27T03:26:32.888Z,95.83
2022-09-27T03:29:01.199Z,95.96
2022-09-27T03:31:30.448Z,96.21
2022-09-27T03:33:58.564Z,96.27
2022-09-27T03:36:27.861Z,95.63
2022-09-27T03:38:56.119Z,95.77
2022-09-27T03:41:24.190Z,95.61
2022-09-27T03:43:52.322Z,95.70
2022-09-27T03:46:20.295Z,95.28
2022-09-27T03:48:48.225Z,95.09
2022-09-27T03:51:16.145Z,95.05
2022-09-27T03:53:45.534Z,94.36
2022-09-27T03:56:13.595Z,95.46
2022-09-27T03:58:41.522Z,95.04
2022-09-27T04:01:09.800Z,95.04
2022-09-27T04:03:38.236Z,94.75
2022-09-27T04:06:06.530Z,94.87
2022-09-27T04:08:34.979Z,94.81
2022-09-27T04:11:04.329Z,94.95
2022-09-27T04:13:32.308Z,94.75
2022-09-27T04:16:00.292Z,94.82
2022-09-27T04:18:28.247Z,94.65
2022-09-27T04:20:56.281Z,94.95
2022-09-27T04:23:29.050Z,94.72
2022-09-27T04:25:57.990Z,95.10
2022-09-27T04:28:28.101Z,94.99
2022-09-27T04:30:56.007Z,95.28
2022-09-27T04:33:24.137Z,95.15
2022-09-27T04:36:09.508Z,95.21
2022-09-27T04:38:37.629Z,95.10
2022-09-27T04:41:05.786Z,95.28
2022-09-27T04:43:35.201Z,94.99
2022-09-27T04:46:03.341Z,94.95
2022-09-27T04:48:31.629Z,95.21
2022-09-27T04:51:00.636Z,95.21
2022-09-27T04:53:29.719Z,95.13
2022-09-27T04:55:58.037Z,95.15
2022-09-27T04:58:26.701Z,94.90
2022-09-27T05:00:56.256Z,95.19
2022-09-27T05:03:24.669Z,94.94
2022-09-27T05:05:52.562Z,94.87
2022-09-27T05:08:21.047Z,95.04
2022-09-27T05:10:49.556Z,95.19
2022-09-27T05:13:18.509Z,95.07
2022-09-27T05:15:46.528Z,95.49
2022-09-27T05:18:16.010Z,95.79
2022-09-27T05:20:43.906Z,95.69
2022-09-27T05:23:12.201Z,95.48
2022-09-27T05:25:40.195Z,95.43
2022-09-27T05:28:09.510Z,95.63
2022-09-27T05:30:38.076Z,95.19
2022-09-27T05:33:06.179Z,94.81
2022-09-27T05:35:36.406Z,95.27
2022-09-27T05:38:04.346Z,95.67
2022-09-27T05:40:47.875Z,94.88
2022-09-27T05:43:16.487Z,94.94
2022-09-27T05:45:45.253Z,95.17
2022-09-27T05:48:14.479Z,95.13
2022-09-27T05:50:44.027Z,95.28
2022-09-27T05:53:13.288Z,95.40
2022-09-27T05:55:41.228Z,94.88
2022-09-27T05:58:11.552Z,95.15
2022-09-27T06:00:40.468Z,95.21
2022-09-27T06:03:12.474Z,95.12
2022-09-27T06:05:41.488Z,94.89
2022-09-27T06:08:13.006Z,94.99
2022-09-27T06:10:46.445Z,94.73
2022-09-27T06:13:16.060Z,94.66
2022-09-27T06:15:46.489Z,95.12
2022-09-27T06:18:18.122Z,94.84
2022-09-27T06:20:46.537Z,94.84
2022-09-27T06:23:18.342Z,95.09
2022-09-27T06:25:47.431Z,94.74
2022-09-27T06:28:16.129Z,94.49
2022-09-27T06:30:46.187Z,94.13
2022-09-27T06:33:16.211Z,94.20
2022-09-27T06:35:45.626Z,93.55
2022-09-27T06:38:16.821Z,94.08
2022-09-27T06:40:47.243Z,94.00
2022-09-27T06:43:17.083Z,93.98
2022-09-27T06:45:45.300Z,93.84
2022-09-27T06:48:16.249Z,94.08
2022-09-27T06:50:46.212Z,93.79
2022-09-27T06:53:17.914Z,93.23
2022-09-27T06:55:45.902Z,93.53
2022-09-27T06:58:31.631Z,93.19
2022-09-27T07:00:59.884Z,92.81
2022-09-27T07:03:34.583Z,92.55
2022-09-27T07:06:06.425Z,92.87
2022-09-27T07:08:35.992Z,92.98
2022-09-27T07:11:06.302Z,93.03
2022-09-27T07:13:37.373Z,92.72
2022-09-27T07:16:05.487Z,92.54
2022-09-27T07:18:33.531Z,92.77
2022-09-27T07:21:01.812Z,92.56
2022-09-27T07:23:32.216Z,92.57
2022-09-27T07:26:06.938Z,92.16
2022-09-27T07:28:36.453Z,92.08
2022-09-27T07:31:05.664Z,91.95
2022-09-27T07:33:34.142Z,92.13
2022-09-27T07:36:07.374Z,92.07
2022-09-27T07:38:35.700Z,92.21
2022-09-27T07:41:10.313Z,91.36
2022-09-27T07:43:38.561Z,91.52
2022-09-27T07:46:06.732Z,92.05
2022-09-27T07:48:34.845Z,91.92
2022-09-27T07:51:03.454Z,91.28
2022-09-27T07:53:31.586Z,91.03
2022-09-27T07:55:59.818Z,90.79
2022-09-27T07:58:30.538Z,91.27
2022-09-27T08:01:00.518Z,91.11
2022-09-27T08:03:29.677Z,91.07
2022-09-27T08:05:57.662Z,90.34
2022-09-27T08:08:25.838Z,90.53
2022-09-27T08:10:53.792Z,90.59
2022-09-27T08:13:21.716Z,90.47
2022-09-27T08:15:52.470Z,90.84
2022-09-27T08:18:22.040Z,89.82
2022-09-27T08:20:50.091Z,89.39
2022-09-27T08:23:17.982Z,89.56
2022-09-27T08:25:45.962Z,89.47
2022-09-27T08:28:13.935Z,89.41
2022-09-27T08:30:41.936Z,88.82
2022-09-27T08:33:11.473Z,88.62
2022-09-27T08:35:39.402Z,89.21
2022-09-27T08:38:07.422Z,89.57
2022-09-27T08:40:50.195Z,88.59
2022-09-27T08:43:28.560Z,89.15
2022-09-27T08:46:08.570Z,89.05
2022-09-27T08:48:40.365Z,89.61
2022-09-27T08:51:12.900Z,89.33
2022-09-27T08:53:49.318Z,89.78
2022-09-27T08:56:21.427Z,89.44
2022-09-27T08:58:53.935Z,89.76
2022-09-27T09:01:27.808Z,89.65
2022-09-27T09:04:04.230Z,89.34
2022-09-27T09:06:41.722Z,89.29
2022-09-27T09:09:22.322Z,88.99
2022-09-27T09:12:19.315Z,88.38
2022-09-27T09:14:57.985Z,88.91
2022-09-27T09:17:40.097Z,89.46
2022-09-27T09:20:29.139Z,89.10
2022-09-27T09:23:19.697Z,89.25
2022-09-27T09:25:58.689Z,89.33
2022-09-27T09:28:35.669Z,89.88
2022-09-27T09:31:15.299Z,89.67
2022-09-27T09:33:48.885Z,89.81
2022-09-27T09:36:28.383Z,89.85
2022-09-27T09:39:00.292Z,89.30
2022-09-27T09:41:32.495Z,89.83
2022-09-27T09:44:06.552Z,89.64
2022-09-27T09:46:43.537Z,89.47
2022-09-27T09:49:18.413Z,89.39
2022-09-27T09:51:52.742Z,89.63
2022-09-27T09:54:25.823Z,89.37
2022-09-27T09:57:00.943Z,89.78
2022-09-27T09:59:35.801Z,89.59
2022-09-27T10:02:21.206Z,89.41
2022-09-27T10:04:49.337Z,90.12
2022-09-27T10:07:23.227Z,89.85
2022-09-27T10:09:52.252Z,90.30
2022-09-27T10:12:20.788Z,89.47
2022-09-27T10:14:51.453Z,90.42
2022-09-27T10:17:22.520Z,90.41
2022-09-27T10:19:52.714Z,90.07
2022-09-27T10:22:28.632Z,90.11
2022-09-27T10:25:03.686Z,90.30
2022-09-27T10:27:41.354Z,90.29
2022-09-27T10:30:23.947Z,89.82
2022-09-27T10:32:54.494Z,90.53
2022-09-27T10:35:35.249Z,90.23
2022-09-27T10:38:24.253Z,89.46
2022-09-27T10:40:53.952Z,89.39
2022-09-27T10:43:31.304Z,87.73
2022-09-27T10:46:10.457Z,86.74
2022-09-27T10:48:41.762Z,86.31
2022-09-27T10:51:25.018Z,85.15
2022-09-27T10:53:58.827Z,84.40
2022-09-27T10:56:30.648Z,85.04
2022-09-27T10:59:00.262Z,85.12
2022-09-27T11:01:39.933Z,85.09
2022-09-27T11:04:08.406Z,84.88
2022-09-27T11:06:39.338Z,85.01
2022-09-27T11:09:26.591Z,84.26
2022-09-27T11:12:10.383Z,84.39
2022-09-27T11:14:38.981Z,85.32
2022-09-27T11:17:15.356Z,84.72
2022-09-27T11:20:10.678Z,84.01
2022-09-27T11:23:14.182Z,83.34
2022-09-27T11:25:53.592Z,83.40
2022-09-27T11:28:33.826Z,83.50
2022-09-27T11:31:18.848Z,83.63
2022-09-27T11:34:16.027Z,80.92
2022-09-27T11:36:59.928Z,82.41
2022-09-27T11:39:36.782Z,80.99
2022-09-27T11:42:23.847Z,81.35
2022-09-27T11:45:56.583Z,81.11
2022-09-27T11:48:24.350Z,81.02
2022-09-27T11:51:11.093Z,80.97
2022-09-27T11:53:55.018Z,81.65
2022-09-27T11:56:35.910Z,82.36
2022-09-27T11:59:25.032Z,80.78
2022-09-27T12:01:58.061Z,81.33
2022-09-27T12:05:02.020Z,82.00
2022-09-27T12:07:40.043Z,82.42
2022-09-27T12:10:14.342Z,82.36
2022-09-27T12:12:45.699Z,83.79
2022-09-27T12:15:19.615Z,84.06
2022-09-27T12:17:52.169Z,84.88
2022-09-27T12:20:24.594Z,84.51
2022-09-27T12:23:00.032Z,84.58
2022-09-27T12:25:37.305Z,84.60
2022-09-27T12:28:10.734Z,84.97
2022-09-27T12:30:45.058Z,85.60
2022-09-27T12:33:24.604Z,85.43
2022-09-27T12:35:55.275Z,86.04
2022-09-27T12:38:30.200Z,86.55
2022-09-27T12:41:00.673Z,87.33
2022-09-27T12:43:32.345Z,86.91
2022-09-27T12:46:12.325Z,86.89
2022-09-27T12:48:49.815Z,86.16
2022-09-27T12:51:19.969Z,86.73
2022-09-27T12:54:03.894Z,86.14
2022-09-27T12:56:45.872Z,84.87
2022-09-27T12:59:41.988Z,85.63
2022-09-27T13:03:14.046Z,84.42
2022-09-27T13:06:12.027Z,84.17
2022-09-27T13:09:01.680Z,83.67
2022-09-27T13:11:42.238Z,84.07
2022-09-27T13:14:19.637Z,83.81
2022-09-27T13:16:49.278Z,84.48
2022-09-27T13:19:42.642Z,83.99
2022-09-27T13:22:27.530Z,84.14
2022-09-27T13:24:55.508Z,83.15
2022-09-27T13:27:41.213Z,82.16
2022-09-27T13:30:48.192Z,82.24
2022-09-27T13:33:45.346Z,82.52
2022-09-27T13:36:31.459Z,82.80
2022-09-27T13:39:06.382Z,81.71
2022-09-27T13:41:53.567Z,81.71
2022-09-27T13:44:30.147Z,81.60
2022-09-27T13:47:01.602Z,80.68
2022-09-27T13:49:34.407Z,80.18
2022-09-27T13:52:06.529Z,80.42
2022-09-27T13:54:41.965Z,79.33
2022-09-27T13:57:45.307Z,80.21
2022-09-27T14:00:15.362Z,81.22
2022-09-27T14:02:55.538Z,80.16
2022-09-27T14:05:29.812Z,78.50
2022-09-27T14:08:02.342Z,78.85
2022-09-27T14:10:33.064Z,77.55
2022-09-27T14:13:05.908Z,78.47
2022-09-27T14:15:35.233Z,78.40
2022-09-27T14:18:03.533Z,79.18
2022-09-27T14:20:38.426Z,77.64
2022-09-27T14:23:07.316Z,76.83
2022-09-27T14:25:40.906Z,76.38
2022-09-27T14:28:23.905Z,75.87
2022-09-27T14:31:07.045Z,76.47
2022-09-27T14:33:35.960Z,76.83
2022-09-27T14:36:23.836Z,77.05
2022-09-27T14:38:51.931Z,77.32
2022-09-27T14:41:21.179Z,76.53
2022-09-27T14:43:52.964Z,75.62
2022-09-27T14:46:29.441Z,74.71
2022-09-27T14:48:59.308Z,75.55
2022-09-27T14:51:31.529Z,74.87
2022-09-27T14:54:01.536Z,74.78
2022-09-27T14:56:33.286Z,74.65
2022-09-27T14:59:07.868Z,74.09
2022-09-27T15:01:38.215Z,74.57
2022-09-27T15:04:08.634Z,74.87
2022-09-27T15:06:37.856Z,75.38
2022-09-27T15:09:07.488Z,75.38
2022-09-27T15:11:36.883Z,74.91
2022-09-27T15:14:06.379Z,74.59
2022-09-27T15:16:35.621Z,74.73
2022-09-27T15:19:07.452Z,74.68
2022-09-27T15:21:38.291Z,73.86
2022-09-27T15:24:07.314Z,74.58
2022-09-27T15:26:39.796Z,74.10
2022-09-27T15:29:08.351Z,74.86
2022-09-27T15:31:39.686Z,74.57
2022-09-27T15:34:08.011Z,75.01
2022-09-27T15:36:54.442Z,74.93
2022-09-27T15:39:29.396Z,74.76
2022-09-27T15:42:07.942Z,74.54
2022-09-27T15:44:46.047Z,74.90
2022-09-27T15:47:51.083Z,74.60
2022-09-27T15:50:35.084Z,74.91
2022-09-27T15:53:05.603Z,75.70
2022-09-27T15:55:37.205Z,75.64
2022-09-27T15:58:09.269Z,75.62
2022-09-27T16:00:37.264Z,75.50
2022-09-27T16:03:05.846Z,75.32
2022-09-27T16:05:33.881Z,75.13
2022-09-27T16:08:02.203Z,75.55
2022-09-27T16:10:33.726Z,75.29
2022-09-27T16:13:01.584Z,76.10
2022-09-27T16:15:30.889Z,75.56
2022-09-27T16:18:01.170Z,75.73
2022-09-27T16:20:29.313Z,76.14
2022-09-27T16:22:57.696Z,75.18
2022-09-27T16:25:25.886Z,75.94
2022-09-27T16:27:53.906Z,75.14
2022-09-27T16:30:21.852Z,75.95
2022-09-27T16:32:51.388Z,76.08
2022-09-27T16:35:20.682Z,75.81
2022-09-27T16:37:48.686Z,76.60
2022-09-27T16:40:21.802Z,76.49
2022-09-27T16:42:50.001Z,76.91
2022-09-27T16:45:19.623Z,76.68
2022-09-27T16:47:48.849Z,76.89
2022-09-27T16:50:35.900Z,77.63
2022-09-27T16:53:05.420Z,77.89
2022-09-27T16:55:33.266Z,77.84
2022-09-27T16:58:03.765Z,77.65
2022-09-27T17:00:33.303Z,77.15
2022-09-27T17:03:01.349Z,77.36
2022-09-27T17:05:31.899Z,77.46
2022-09-27T17:07:59.871Z,77.12
2022-09-27T17:10:28.606Z,76.86
2022-09-27T17:12:57.644Z,76.27
2022-09-27T17:15:26.188Z,76.66
2022-09-27T17:17:53.991Z,76.84
2022-09-27T17:20:21.960Z,76.74
2022-09-27T17:22:51.215Z,76.72
2022-09-27T17:25:19.073Z,76.76
2022-09-27T17:27:46.883Z,77.03
2022-09-27T17:30:14.903Z,77.19
2022-09-27T17:32:43.177Z,77.54
2022-09-27T17:35:11.106Z,78.08
2022-09-27T17:37:38.980Z,77.95
2022-09-27T17:40:10.074Z,77.95
2022-09-27T17:42:38.094Z,78.05
2022-09-27T17:45:06.872Z,78.49
2022-09-27T17:47:52.081Z,78.86
2022-09-27T17:50:25.800Z,78.74
2022-09-27T17:52:54.048Z,78.87
2022-09-27T17:55:24.526Z,78.90
2022-09-27T17:57:52.748Z,79.14
2022-09-27T18:00:21.483Z,78.85
2022-09-27T18:02:49.569Z,78.98
2022-09-27T18:05:20.990Z,79.15
2022-09-27T18:07:49.163Z,79.25
2022-09-27T18:10:17.977Z,79.55
2022-09-27T18:12:47.493Z,79.74
2022-09-27T18:15:17.025Z,80.03
2022-09-27T18:17:45.865Z,79.97
2022-09-27T18:20:13.805Z,80.59
2022-09-27T18:22:41.659Z,81.26
2022-09-27T18:25:11.567Z,81.36
2022-09-27T18:27:40.506Z,81.70
2022-09-27T18:30:12.140Z,81.36
2022-09-27T18:32:40.274Z,82.16
2022-09-27T18:35:09.071Z,82.33
2022-09-27T18:37:37.181Z,82.63
2022-09-27T18:40:05.363Z,83.14
2022-09-27T18:42:33.161Z,83.07
2022-09-27T18:45:00.957Z,83.91
2022-09-27T18:47:30.928Z,84.52
2022-09-27T18:49:58.857Z,84.28
2022-09-27T18:52:26.620Z,84.74
2022-09-27T18:54:54.882Z,84.43
2022-09-27T18:57:22.947Z,84.99
2022-09-27T18:59:50.725Z,85.15
2022-09-27T19:02:18.979Z,85.38
2022-09-27T19:04:48.348Z,85.43
2022-09-27T19:07:16.281Z,85.35
2022-09-27T19:09:44.834Z,85.53
2022-09-27T19:12:12.699Z,85.47
2022-09-27T19:14:40.557Z,85.60
2022-09-27T19:17:08.431Z,86.03
2022-09-27T19:19:36.435Z,85.89
2022-09-27T19:22:05.698Z,85.83
2022-09-27T19:24:33.527Z,85.83
2022-09-27T19:27:01.517Z,85.96
2022-09-27T19:29:29.477Z,86.21
2022-09-27T19:31:57.361Z,86.04
2022-09-27T19:34:25.228Z,86.26
2022-09-27T19:36:53.103Z,86.49
2022-09-27T19:39:22.296Z,86.23
2022-09-27T19:41:50.188Z,86.31
2022-09-27T19:44:18.063Z,86.08
2022-09-27T19:46:46.529Z,86.27
2022-09-27T19:49:14.500Z,85.99
2022-09-27T19:51:42.349Z,86.18
2022-09-27T19:54:11.293Z,86.25
2022-09-27T19:56:40.555Z,86.05
2022-09-27T19:59:08.339Z,85.56
2022-09-27T20:01:36.667Z,85.67
2022-09-27T20:04:04.660Z,85.74
2022-09-27T20:06:33.179Z,85.94
2022-09-27T20:09:03.039Z,86.22
2022-09-27T20:11:31.349Z,85.35
2022-09-27T20:14:01.212Z,85.84
2022-09-27T20:16:29.427Z,86.15
2022-09-27T20:18:58.942Z,85.88
2022-09-27T20:21:28.762Z,85.96
2022-09-27T20:23:58.506Z,85.76
2022-09-27T20:26:28.123Z,86.24
2022-09-27T20:28:58.405Z,86.69
2022-09-27T20:31:29.819Z,86.80
2022-09-27T20:33:57.893Z,86.92
2022-09-27T20:36:27.608Z,86.92
2022-09-27T20:39:01.907Z,86.64
2022-09-27T20:41:32.425Z,86.30
2022-09-27T20:44:03.480Z,86.71
2022-09-27T20:46:33.515Z,86.51
2022-09-27T20:49:03.970Z,87.05
2022-09-27T20:51:33.487Z,87.08
2022-09-27T20:54:01.751Z,87.01
2022-09-27T20:56:31.756Z,86.99
2022-09-27T20:59:01.395Z,86.87
2022-09-27T21:01:30.784Z,86.84
2022-09-27T21:04:01.666Z,87.05
2022-09-27T21:06:31.470Z,86.54
2022-09-27T21:09:00.568Z,86.52
2022-09-27T21:11:29.265Z,87.05
2022-09-27T21:13:57.274Z,87.05
2022-09-27T21:16:27.276Z,86.82
2022-09-27T21:18:57.490Z,86.94
2022-09-27T21:21:27.734Z,86.98
2022-09-27T21:23:58.093Z,87.13
2022-09-27T21:26:27.922Z,86.67
2022-09-27T21:28:58.274Z,86.77
2022-09-27T21:31:27.844Z,86.65
2022-09-27T21:33:58.956Z,86.61
2022-09-27T21:36:29.838Z,86.82
2022-09-27T21:38:58.450Z,86.96
2022-09-27T21:41:27.449Z,87.33
2022-09-27T21:43:55.646Z,86.92
2022-09-27T21:46:26.138Z,87.18
2022-09-27T21:48:56.685Z,87.25
2022-09-27T21:51:26.022Z,87.29
2022-09-27T21:53:57.070Z,87.01
2022-09-27T21:56:27.079Z,86.83
2022-09-27T21:58:54.969Z,86.93
2022-09-27T22:01:24.882Z,86.91
2022-09-27T22:03:55.626Z,86.90
2022-09-27T22:06:25.222Z,87.11
2022-09-27T22:08:53.614Z,86.75
2022-09-27T22:11:24.885Z,87.12
2022-09-27T22:13:53.223Z,86.79
2022-09-27T22:16:22.379Z,86.88
2022-09-27T22:18:52.715Z,86.67
2022-09-27T22:21:22.689Z,86.81
2022-09-27T22:23:55.088Z,86.99
2022-09-27T22:26:26.276Z,87.10
2022-09-27T22:28:54.907Z,86.81
2022-09-27T22:31:23.970Z,86.89
2022-09-27T22:33:54.454Z,86.89
2022-09-27T22:36:24.768Z,86.55
2022-09-27T22:38:53.362Z,86.83
2022-09-27T22:41:21.977Z,86.38
2022-09-27T22:43:53.464Z,86.53
2022-09-27T22:46:21.997Z,86.57
2022-09-27T22:48:51.040Z,86.70
2022-09-27T22:51:19.337Z,86.76
2022-09-27T22:53:47.258Z,86.45
2022-09-27T22:56:16.905Z,86.92
2022-09-27T22:58:45.072Z,86.88
2022-09-27T23:01:17.206Z,86.93
2022-09-27T23:03:45.798Z,87.00
2022-09-27T23:06:15.217Z,87.15
2022-09-27T23:08:43.843Z,87.52
2022-09-27T23:11:13.041Z,87.69
2022-09-27T23:13:42.907Z,87.69
2022-09-27T23:16:13.264Z,87.31
2022-09-27T23:18:42.977Z,87.39
2022-09-27T23:21:12.740Z,87.53
2022-09-27T23:23:42.750Z,87.77
2022-09-27T23:26:12.080Z,87.83
2022-09-27T23:28:40.830Z,87.88
2022-09-27T23:31:10.339Z,87.99
2022-09-27T23:33:39.805Z,87.75
2022-09-27T23:36:11.034Z,87.92
2022-09-27T23:38:40.346Z,87.93
2022-09-27T23:41:09.523Z,87.93
2022-09-27T23:43:38.100Z,88.15
2022-09-27T23:46:07.483Z,88.48
2022-09-27T23:48:35.999Z,88.68
2022-09-27T23:51:05.957Z,88.82
2022-09-27T23:53:35.636Z,89.20
2022-09-27T23:56:05.979Z,89.24
2022-09-27T23:58:34.532Z,89.39
